地図

経路データ

SID SEASON NUMBER BASIN SUBBASIN NAME ISO_TIME NATURE LAT LON WMO_WIND WMO_PRES WMO_AGENCY TRACK_TYPE DIST2LAND LANDFALL IFLAG USA_AGENCY USA_ATCF_ID USA_LAT USA_LON USA_RECORD USA_STATUS USA_WIND USA_PRES USA_SSHS USA_R34_NE USA_R34_SE USA_R34_SW USA_R34_NW USA_R50_NE USA_R50_SE USA_R50_SW USA_R50_NW USA_R64_NE USA_R64_SE USA_R64_SW USA_R64_NW USA_POCI USA_ROCI USA_RMW USA_EYE TOKYO_LAT TOKYO_LON TOKYO_GRADE TOKYO_WIND TOKYO_PRES TOKYO_R50_DIR TOKYO_R50_LONG TOKYO_R50_SHORT TOKYO_R30_DIR TOKYO_R30_LONG TOKYO_R30_SHORT TOKYO_LAND CMA_LAT CMA_LON CMA_CAT CMA_WIND CMA_PRES HKO_LAT HKO_LON HKO_CAT HKO_WIND HKO_PRES NEWDELHI_LAT NEWDELHI_LON NEWDELHI_GRADE NEWDELHI_WIND NEWDELHI_PRES NEWDELHI_CI NEWDELHI_DP NEWDELHI_POCI REUNION_LAT REUNION_LON REUNION_TYPE REUNION_WIND REUNION_PRES REUNION_TNUM REUNION_CI REUNION_RMW REUNION_R34_NE REUNION_R34_SE REUNION_R34_SW REUNION_R34_NW REUNION_R50_NE REUNION_R50_SE REUNION_R50_SW REUNION_R50_NW REUNION_R64_NE REUNION_R64_SE REUNION_R64_SW REUNION_R64_NW BOM_LAT BOM_LON BOM_TYPE BOM_WIND BOM_PRES BOM_TNUM BOM_CI BOM_RMW BOM_R34_NE BOM_R34_SE BOM_R34_SW BOM_R34_NW BOM_R50_NE BOM_R50_SE BOM_R50_SW BOM_R50_NW BOM_R64_NE BOM_R64_SE BOM_R64_SW BOM_R64_NW BOM_ROCI BOM_POCI BOM_EYE BOM_POS_METHOD BOM_PRES_METHOD NADI_LAT NADI_LON NADI_CAT NADI_WIND NADI_PRES WELLINGTON_LAT WELLINGTON_LON WELLINGTON_WIND WELLINGTON_PRES DS824_LAT DS824_LON DS824_STAGE DS824_WIND DS824_PRES TD9636_LAT TD9636_LON TD9636_STAGE TD9636_WIND TD9636_PRES TD9635_LAT TD9635_LON TD9635_WIND TD9635_PRES TD9635_ROCI NEUMANN_LAT NEUMANN_LON NEUMANN_CLASS NEUMANN_WIND NEUMANN_PRES MLC_LAT MLC_LON MLC_CLASS MLC_WIND MLC_PRES USA_GUST BOM_GUST BOM_GUST_PER REUNION_GUST REUNION_GUST_PER USA_SEAHGT USA_SEARAD_NE USA_SEARAD_SE USA_SEARAD_SW USA_SEARAD_NW STORM_SPEED STORM_DIR
1861070S11100 1861 10 SI WA NOT_NAMED 1861-03-11 06:00:00 NR -11.3000 100.100 main 753 745 _____O________ -1 -11.3000 100.100 99 9.90000 1 87
1861070S11100 1861 10 SI WA NOT_NAMED 1861-03-11 09:00:00 NR -11.2967 100.161 main 745 745 _____P________ -1 -11.2967 100.161 99 1 89
1861070S11100 1861 10 SI WA NOT_NAMED 1861-03-11 12:00:00 NR -11.2973 100.209 main 745 745 _____P________ -1 -11.2973 100.209 99 1 98
1861070S11100 1861 10 SI WA NOT_NAMED 1861-03-11 15:00:00 NR -11.3056 100.228 main 745 745 _____P________ -1 -11.3056 100.228 99 0 224
1861070S11100 1861 10 SI WA NOT_NAMED 1861-03-11 18:00:00 NR -11.3257 100.204 main 745 745 _____P________ -1 -11.3257 100.204 99 1 242
1861070S11100 1861 10 SI WA NOT_NAMED 1861-03-11 21:00:00 NR -11.3614 100.124 main 761 761 _____P________ -1 -11.3614 100.124 99 2 248
1861070S11100 1861 10 SI WA NOT_NAMED 1861-03-12 00:00:00 NR -11.4165 99.9726 main 769 769 _____P________ -1 -11.4165 99.9726 99 4 251
1861070S11100 1861 10 SI WA NOT_NAMED 1861-03-12 03:00:00 NR -11.4948 99.7361 main 801 801 _____P________ -1 -11.4948 99.7361 99 6 252
1861070S11100 1861 10 SI WA NOT_NAMED 1861-03-12 06:00:00 NR -11.6000 99.4000 main 833 833 _____O________ -1 -11.6000 99.4000 99 9.90000 8 253
1861070S11100 1861 10 SI WA NOT_NAMED 1861-03-12 09:00:00 NR -11.7338 98.9563 main 874 874 _____P________ -1 -11.7338 98.9563 99 10 253
1861070S11100 1861 10 SI WA NOT_NAMED 1861-03-12 12:00:00 NR -11.8905 98.4238 main 939 939 _____P________ -1 -11.8905 98.4238 99 12 253
1861070S11100 1861 10 SI WA NOT_NAMED 1861-03-12 15:00:00 NR -12.0625 97.8279 main 1005 1005 _____P________ -1 -12.0625 97.8279 99 13 254
1861070S11100 1861 10 SI WA NOT_NAMED 1861-03-12 18:00:00 NR -12.2424 97.1942 main 1065 1065 _____P________ -1 -12.2424 97.1942 99 13 254
1861070S11100 1861 10 SI WA NOT_NAMED 1861-03-12 21:00:00 NR -12.4230 96.5485 main 1130 1130 _____P________ -1 -12.4230 96.5485 99 13 254
1861070S11100 1861 10 SI WA NOT_NAMED 1861-03-13 00:00:00 NR -12.5972 95.9169 main 1189 1189 _____P________ -1 -12.5972 95.9169 99 12 254
1861070S11100 1861 10 SI WA NOT_NAMED 1861-03-13 03:00:00 NR -12.7584 95.3254 main 1249 1249 _____P________ -1 -12.7584 95.3254 99 11 254
1861070S11100 1861 10 SI WA NOT_NAMED 1861-03-13 06:00:00 NR -12.9000 94.8000 main 1293 1293 _____O________ -1 -12.9000 94.8000 99 9.90000 9 255
1861070S11100 1861 10 SI WA NOT_NAMED 1861-03-13 09:00:00 NR -13.0018 94.4229 main 1330 1330 _____P________ -1 -13.0018 94.4229 99 7 255
1861070S11100 1861 10 SI WA NOT_NAMED 1861-03-13 12:00:00 NR -13.0878 94.1015 main 1360 1360 _____P________ -1 -13.0878 94.1015 99 6 255
1861070S11100 1861 10 SI WA NOT_NAMED 1861-03-13 15:00:00 NR -13.1603 93.8277 main 1391 1391 _____P________ -1 -13.1603 93.8277 99 5 255
1861070S11100 1861 10 SI WA NOT_NAMED 1861-03-13 18:00:00 NR -13.2217 93.5939 main 1405 1405 _____P________ -1 -13.2217 93.5939 99 4 255
1861070S11100 1861 10 SI WA NOT_NAMED 1861-03-13 21:00:00 NR -13.2742 93.3921 main 1428 1428 _____P________ -1 -13.2742 93.3921 99 4 255
1861070S11100 1861 10 SI WA NOT_NAMED 1861-03-14 00:00:00 NR -13.3199 93.2144 main 1442 1442 _____P________ -1 -13.3199 93.2144 99 3 255
1861070S11100 1861 10 SI WA NOT_NAMED 1861-03-14 03:00:00 NR -13.3612 93.0530 main 1457 1457 _____P________ -1 -13.3612 93.0530 99 3 255
1861070S11100 1861 10 SI WA NOT_NAMED 1861-03-14 06:00:00 NR -13.4000 92.9000 main 1467 1467 _____O________ -1 -13.4000 92.9000 99 9.90000 3 255
1861070S11100 1861 10 SI WA NOT_NAMED 1861-03-14 09:00:00 NR -13.4485 92.7135 main 1477 1477 _____P________ -1 -13.4485 92.7135 99 4 255
1861070S11100 1861 10 SI WA NOT_NAMED 1861-03-14 12:00:00 NR -13.4930 92.5414 main 1498 1498 _____P________ -1 -13.4930 92.5414 99 3 255
1861070S11100 1861 10 SI WA NOT_NAMED 1861-03-14 15:00:00 NR -13.5341 92.3816 main 1503 1503 _____P________ -1 -13.5341 92.3816 99 3 255
1861070S11100 1861 10 SI WA NOT_NAMED 1861-03-14 18:00:00 NR -13.5720 92.2323 main 1523 1523 _____P________ -1 -13.5720 92.2323 99 3 255
1861070S11100 1861 10 SI WA NOT_NAMED 1861-03-14 21:00:00 NR -13.6072 92.0914 main 1528 1528 _____P________ -1 -13.6072 92.0914 99 3 256
1861070S11100 1861 10 SI WA NOT_NAMED 1861-03-15 00:00:00 NR -13.6400 91.9571 main 1534 1534 _____P________ -1 -13.6400 91.9571 99 3 256
1861070S11100 1861 10 SI WA NOT_NAMED 1861-03-15 03:00:00 NR -13.6708 91.8272 main 1554 1554 _____P________ -1 -13.6708 91.8272 99 3 256
1861070S11100 1861 10 SI WA NOT_NAMED 1861-03-15 06:00:00 NR -13.7000 91.7000 main 1560 1560 _____O________ -1 -13.7000 91.7000 99 9.90000 3 257
1861070S11100 1861 10 SI WA NOT_NAMED 1861-03-15 09:00:00 NR -13.7279 91.5737 main 1566 1566 _____P________ -1 -13.7279 91.5737 99 3 257
1861070S11100 1861 10 SI WA NOT_NAMED 1861-03-15 12:00:00 NR -13.7546 91.4479 main 1587 1587 _____P________ -1 -13.7546 91.4479 99 2 258
1861070S11100 1861 10 SI WA NOT_NAMED 1861-03-15 15:00:00 NR -13.7804 91.3226 main 1592 1592 _____P________ -1 -13.7804 91.3226 99 2 258
1861070S11100 1861 10 SI WA NOT_NAMED 1861-03-15 18:00:00 NR -13.8053 91.1976 main 1598 1598 _____P________ -1 -13.8053 91.1976 99 2 259
1861070S11100 1861 10 SI WA NOT_NAMED 1861-03-15 21:00:00 NR -13.8296 91.0730 main 1604 1604 _____P________ -1 -13.8296 91.0730 99 2 259
1861070S11100 1861 10 SI WA NOT_NAMED 1861-03-16 00:00:00 NR -13.8534 90.9485 main 1625 1625 _____P________ -1 -13.8534 90.9485 99 2 259
1861070S11100 1861 10 SI WA NOT_NAMED 1861-03-16 03:00:00 NR -13.8768 90.8242 main 1631 1631 _____P________ -1 -13.8768 90.8242 99 2 259
1861070S11100 1861 10 SI WA NOT_NAMED 1861-03-16 06:00:00 NR -13.9000 90.7000 main 1637 _____O________ -1 -13.9000 90.7000 99 9.90000 2 259

IBTrACS Databaseについて

本データベースは、米国NOAAが公開する1842年以降の世界の熱帯低気圧のベストトラックデータアーカイブInternational Best Track Archive for Climate Stewardship (IBTrACS)を、ウェブで閲覧しやすい形式に変換したものです。

最終更新日:2021-10-21